createdAt,value
2022-08-26T00:02:19.371Z,47.40
2022-08-26T00:04:48.628Z,47.34
2022-08-26T00:07:16.237Z,47.45
2022-08-26T00:09:47.310Z,47.70
2022-08-26T00:12:15.326Z,47.43
2022-08-26T00:14:42.910Z,47.50
2022-08-26T00:17:10.566Z,47.60
2022-08-26T00:19:38.501Z,47.48
2022-08-26T00:22:12.321Z,48.15
2022-08-26T00:24:39.856Z,47.75
2022-08-26T00:27:15.587Z,47.87
2022-08-26T00:29:43.268Z,48.13
2022-08-26T00:32:12.647Z,48.01
2022-08-26T00:34:41.954Z,48.02
2022-08-26T00:37:13.410Z,48.33
2022-08-26T00:39:46.206Z,48.02
2022-08-26T00:42:14.043Z,48.06
2022-08-26T00:44:41.579Z,48.46
2022-08-26T00:47:31.052Z,49.12
2022-08-26T00:50:02.411Z,48.96
2022-08-26T00:52:30.969Z,48.84
2022-08-26T00:55:04.998Z,49.37
2022-08-26T00:57:34.434Z,49.29
2022-08-26T01:00:07.493Z,49.54
2022-08-26T01:02:36.286Z,49.40
2022-08-26T01:05:06.017Z,49.33
2022-08-26T01:07:34.809Z,49.56
2022-08-26T01:12:40.139Z,50.14
2022-08-26T01:15:11.278Z,50.14
2022-08-26T01:17:39.505Z,49.91
2022-08-26T01:20:19.173Z,50.72
2022-08-26T01:22:50.479Z,50.43
2022-08-26T01:25:21.304Z,50.05
2022-08-26T01:27:49.665Z,50.22
2022-08-26T01:30:19.214Z,50.09
2022-08-26T01:32:49.075Z,50.55
2022-08-26T01:35:16.684Z,50.51
2022-08-26T01:37:48.186Z,50.74
2022-08-26T01:40:21.989Z,51.01
2022-08-26T01:42:50.358Z,50.64
2022-08-26T01:45:30.864Z,51.21
2022-08-26T01:48:01.263Z,50.92
2022-08-26T01:50:33.926Z,51.18
2022-08-26T01:53:06.861Z,51.45
2022-08-26T01:55:37.468Z,51.33
2022-08-26T01:58:08.357Z,51.41
2022-08-26T02:00:37.154Z,51.05
2022-08-26T02:03:17.502Z,51.90
2022-08-26T02:05:51.392Z,51.84
2022-08-26T02:08:24.914Z,51.51
2022-08-26T02:10:54.711Z,51.44
2022-08-26T02:13:25.541Z,51.62
2022-08-26T02:15:54.264Z,51.62
2022-08-26T02:18:22.867Z,51.55
2022-08-26T02:20:56.450Z,51.83
2022-08-26T02:23:25.043Z,51.64
2022-08-26T02:26:19.382Z,52.23
2022-08-26T02:29:05.098Z,52.22
2022-08-26T02:31:35.538Z,51.88
2022-08-26T02:34:15.688Z,52.41
2022-08-26T02:36:43.515Z,52.13
2022-08-26T02:39:16.956Z,52.31
2022-08-26T02:41:50.294Z,52.35
2022-08-26T02:44:18.878Z,52.39
2022-08-26T02:46:47.220Z,52.38
2022-08-26T02:49:17.045Z,52.62
2022-08-26T02:51:44.837Z,52.69
2022-08-26T02:54:12.955Z,52.65
2022-08-26T02:56:41.040Z,52.52
2022-08-26T02:59:09.667Z,52.55
2022-08-26T03:01:37.253Z,52.61
2022-08-26T03:04:07.564Z,52.60
2022-08-26T03:06:43.907Z,52.24
2022-08-26T03:09:21.283Z,52.17
2022-08-26T03:11:52.050Z,52.00
2022-08-26T03:14:20.690Z,51.84
2022-08-26T03:19:18.943Z,51.78
2022-08-26T03:21:47.195Z,51.50
2022-08-26T03:24:17.636Z,51.23
2022-08-26T03:26:52.131Z,51.29
2022-08-26T03:29:40.270Z,51.24
2022-08-26T03:32:08.962Z,51.10
2022-08-26T03:34:37.317Z,51.23
2022-08-26T03:37:06.224Z,51.32
2022-08-26T03:39:33.959Z,51.17
2022-08-26T03:42:01.903Z,50.66
2022-08-26T03:44:29.417Z,50.58
2022-08-26T03:46:59.662Z,50.45
2022-08-26T03:49:36.979Z,50.50
2022-08-26T03:52:05.339Z,50.16
2022-08-26T03:54:33.788Z,50.01
2022-08-26T03:57:01.514Z,49.79
2022-08-26T03:59:29.014Z,49.38
2022-08-26T04:01:56.667Z,49.19
2022-08-26T04:04:26.634Z,49.08
2022-08-26T04:06:58.922Z,49.02
2022-08-26T04:09:27.695Z,48.54
2022-08-26T04:11:58.784Z,48.43
2022-08-26T04:14:27.778Z,48.15
2022-08-26T04:16:56.331Z,47.88
2022-08-26T04:19:25.558Z,47.97
2022-08-26T04:21:53.995Z,47.59
2022-08-26T04:24:24.176Z,47.21
2022-08-26T04:26:57.990Z,47.13
2022-08-26T04:29:26.956Z,46.62
2022-08-26T04:31:56.006Z,46.56
2022-08-26T04:34:27.235Z,46.12
2022-08-26T04:36:57.902Z,46.12
2022-08-26T04:39:27.636Z,45.58
2022-08-26T04:41:57.916Z,45.20
2022-08-26T04:44:29.823Z,44.61
2022-08-26T04:46:58.945Z,44.18
2022-08-26T04:49:27.678Z,43.60
2022-08-26T04:51:55.382Z,42.95
2022-08-26T04:54:25.272Z,42.33
2022-08-26T04:56:53.005Z,42.09
2022-08-26T04:59:20.590Z,41.89
2022-08-26T05:01:54.125Z,41.68
2022-08-26T05:04:28.769Z,41.40
2022-08-26T05:07:02.478Z,41.10
2022-08-26T05:09:37.448Z,40.24
2022-08-26T05:12:17.197Z,40.00
2022-08-26T05:15:00.355Z,39.96
2022-08-26T05:17:31.614Z,39.79
2022-08-26T05:20:00.798Z,39.38
2022-08-26T05:22:29.104Z,38.95
2022-08-26T05:24:56.802Z,38.86
2022-08-26T05:27:25.065Z,38.83
2022-08-26T05:29:58.940Z,37.73
2022-08-26T05:32:27.964Z,38.28
2022-08-26T05:34:57.530Z,37.83
2022-08-26T05:37:27.023Z,37.39
2022-08-26T05:39:55.707Z,36.45
2022-08-26T05:42:25.049Z,35.91
2022-08-26T05:44:55.956Z,36.30
2022-08-26T05:47:25.397Z,35.72
2022-08-26T05:49:54.122Z,34.82
2022-08-26T05:52:24.583Z,34.11
2022-08-26T05:54:53.970Z,34.13
2022-08-26T05:57:23.121Z,33.43
2022-08-26T05:59:51.861Z,32.66
2022-08-26T06:02:20.349Z,32.33
2022-08-26T06:04:48.250Z,31.83
2022-08-26T06:07:17.055Z,31.30
2022-08-26T06:09:46.115Z,30.97
2022-08-26T06:12:13.671Z,30.95
2022-08-26T06:14:42.651Z,30.25
2022-08-26T06:17:13.219Z,29.79
2022-08-26T06:19:41.366Z,28.77
2022-08-26T06:22:31.758Z,27.54
2022-08-26T06:25:17.701Z,27.21
2022-08-26T06:27:45.349Z,26.79
2022-08-26T06:30:13.252Z,26.39
2022-08-26T06:32:41.079Z,26.27
2022-08-26T06:35:12.422Z,25.81
2022-08-26T06:37:41.170Z,25.73
2022-08-26T06:40:09.552Z,26.42
2022-08-26T06:42:39.337Z,26.48
2022-08-26T06:45:07.433Z,26.22
2022-08-26T06:47:36.370Z,25.63
2022-08-26T06:50:04.065Z,25.38
2022-08-26T06:52:37.615Z,24.98
2022-08-26T06:55:18.215Z,24.25
2022-08-26T06:57:46.075Z,23.86
2022-08-26T07:00:15.476Z,23.52
2022-08-26T07:02:46.868Z,23.38
2022-08-26T07:05:14.647Z,23.34
2022-08-26T07:07:42.152Z,22.23
2022-08-26T07:10:10.840Z,21.23
2022-08-26T07:12:39.006Z,21.10
2022-08-26T07:15:12.538Z,20.26
2022-08-26T07:17:40.220Z,20.38
2022-08-26T07:20:09.362Z,20.10
2022-08-26T07:22:37.263Z,19.95
2022-08-26T07:25:09.497Z,19.46
2022-08-26T07:27:38.966Z,18.63
2022-08-26T07:30:07.966Z,18.82
2022-08-26T07:32:35.550Z,18.19
2022-08-26T07:35:03.611Z,17.79
2022-08-26T07:37:35.415Z,18.27
2022-08-26T07:40:06.425Z,17.95
2022-08-26T07:42:34.543Z,17.37
2022-08-26T07:45:02.340Z,16.81
2022-08-26T07:47:32.838Z,17.30
2022-08-26T07:50:02.860Z,17.27
2022-08-26T07:52:34.494Z,16.94
2022-08-26T07:55:03.025Z,16.82
2022-08-26T07:57:31.386Z,15.94
2022-08-26T07:59:59.577Z,15.29
2022-08-26T08:02:28.876Z,15.86
2022-08-26T08:04:58.026Z,15.10
2022-08-26T08:07:44.317Z,15.25
2022-08-26T08:10:16.554Z,15.09
2022-08-26T08:12:45.086Z,14.67
2022-08-26T08:15:14.230Z,14.35
2022-08-26T08:17:46.353Z,14.46
2022-08-26T08:20:19.431Z,14.52
2022-08-26T08:22:47.748Z,14.19
2022-08-26T08:25:15.336Z,13.41
2022-08-26T08:27:45.283Z,13.47
2022-08-26T08:30:14.080Z,14.33
2022-08-26T08:32:43.809Z,14.36
2022-08-26T08:35:15.311Z,13.62
2022-08-26T08:37:46.213Z,13.37
2022-08-26T08:40:19.161Z,13.35
2022-08-26T08:42:54.861Z,13.43
2022-08-26T08:45:35.899Z,13.38
2022-08-26T08:48:27.634Z,13.02
2022-08-26T08:51:18.163Z,13.15
2022-08-26T08:53:49.689Z,12.87
2022-08-26T08:56:31.510Z,12.97
2022-08-26T08:59:20.378Z,12.80
2022-08-26T09:02:06.518Z,12.66
2022-08-26T09:04:45.845Z,12.61
2022-08-26T09:07:36.974Z,12.63
2022-08-26T09:10:23.390Z,11.86
2022-08-26T09:12:52.699Z,11.85
2022-08-26T09:15:57.978Z,11.71
2022-08-26T09:18:50.711Z,11.97
2022-08-26T09:21:20.229Z,11.44
2022-08-26T09:23:52.382Z,11.40
2022-08-26T09:26:41.018Z,11.13
2022-08-26T09:29:15.603Z,10.67
2022-08-26T09:31:43.263Z,10.31
2022-08-26T09:34:17.473Z,10.28
2022-08-26T09:36:55.788Z,10.51
2022-08-26T09:39:37.882Z,10.49
2022-08-26T09:42:12.371Z,10.46
2022-08-26T09:44:59.651Z,9.55
2022-08-26T09:47:31.647Z,10.03
2022-08-26T09:50:12.370Z,9.96
2022-08-26T09:52:42.690Z,9.85
2022-08-26T09:55:13.992Z,10.06
2022-08-26T09:57:46.099Z,9.55
2022-08-26T10:00:40.640Z,9.09
2022-08-26T10:03:15.530Z,9.01
2022-08-26T10:05:55.119Z,9.39
2022-08-26T10:08:38.974Z,9.04
2022-08-26T10:11:30.616Z,10.05
2022-08-26T10:14:08.108Z,9.70
2022-08-26T10:17:02.416Z,9.33
2022-08-26T10:19:55.568Z,8.96
2022-08-26T10:22:54.626Z,9.12
2022-08-26T10:25:28.548Z,8.90
2022-08-26T10:28:02.448Z,8.94
2022-08-26T10:30:40.029Z,8.86
2022-08-26T10:33:18.623Z,8.36
2022-08-26T10:35:59.987Z,7.98
2022-08-26T10:38:37.647Z,7.66
2022-08-26T10:41:15.863Z,7.63
2022-08-26T10:43:53.206Z,7.62
2022-08-26T10:46:27.190Z,7.32
2022-08-26T10:49:08.604Z,6.56
2022-08-26T10:52:12.473Z,7.42
2022-08-26T10:54:48.401Z,7.51
2022-08-26T10:57:33.252Z,7.15
2022-08-26T11:00:27.546Z,6.87
2022-08-26T11:03:22.465Z,7.18
2022-08-26T11:06:16.705Z,7.33
2022-08-26T11:08:50.086Z,8.58
2022-08-26T11:11:50.890Z,9.49
2022-08-26T11:14:29.332Z,10.07
2022-08-26T11:16:59.842Z,11.11
2022-08-26T11:19:59.347Z,11.39
2022-08-26T11:22:38.160Z,9.20
2022-08-26T11:25:19.762Z,9.54
2022-08-26T11:27:56.936Z,10.52
2022-08-26T11:30:25.276Z,10.11
2022-08-26T11:32:57.365Z,9.68
2022-08-26T11:35:24.865Z,8.54
2022-08-26T11:37:59.192Z,7.89
2022-08-26T11:40:29.909Z,7.48
2022-08-26T11:43:03.076Z,7.63
2022-08-26T11:45:59.827Z,7.15
2022-08-26T11:48:28.322Z,7.89
2022-08-26T11:51:06.585Z,9.88
2022-08-26T11:53:38.927Z,11.01
2022-08-26T11:56:28.774Z,11.29
2022-08-26T11:59:02.994Z,10.70
2022-08-26T12:01:36.542Z,9.93
2022-08-26T12:04:07.740Z,8.83
2022-08-26T12:06:48.059Z,8.38
2022-08-26T12:09:34.632Z,7.85
2022-08-26T12:12:23.908Z,7.29
2022-08-26T12:15:19.847Z,6.92
2022-08-26T12:17:54.277Z,6.94
2022-08-26T12:20:31.086Z,7.23
2022-08-26T12:23:00.858Z,8.07
2022-08-26T12:25:36.041Z,7.85
2022-08-26T12:28:06.167Z,7.72
2022-08-26T12:30:33.898Z,7.54
2022-08-26T12:33:22.152Z,7.63
2022-08-26T12:35:56.261Z,7.31
2022-08-26T12:38:26.787Z,7.24
2022-08-26T12:40:54.838Z,7.13
2022-08-26T12:43:46.024Z,6.92
2022-08-26T12:46:18.141Z,7.00
2022-08-26T12:48:49.729Z,6.98
2022-08-26T12:51:30.241Z,7.27
2022-08-26T12:53:59.238Z,7.88
2022-08-26T12:56:29.464Z,8.00
2022-08-26T12:59:25.157Z,8.03
2022-08-26T13:01:53.599Z,8.78
2022-08-26T13:04:40.655Z,9.91
2022-08-26T13:07:14.320Z,10.72
2022-08-26T13:09:43.952Z,11.13
2022-08-26T13:12:11.776Z,11.85
2022-08-26T13:14:40.573Z,11.71
2022-08-26T13:17:08.158Z,10.79
2022-08-26T13:19:35.895Z,10.57
2022-08-26T13:22:05.262Z,10.68
2022-08-26T13:24:39.889Z,10.56
2022-08-26T13:27:10.127Z,10.97
2022-08-26T13:29:37.868Z,11.80
2022-08-26T13:32:06.985Z,13.06
2022-08-26T13:34:36.911Z,14.12
2022-08-26T13:37:07.463Z,15.37
2022-08-26T13:39:35.118Z,15.52
2022-08-26T13:42:02.587Z,16.38
2022-08-26T13:44:30.134Z,16.19
2022-08-26T13:46:57.581Z,16.53
2022-08-26T13:49:34.306Z,16.99
2022-08-26T13:52:04.256Z,17.57
2022-08-26T13:54:31.730Z,17.66
2022-08-26T13:57:02.423Z,17.73
2022-08-26T13:59:30.016Z,17.85
2022-08-26T14:01:58.825Z,18.36
2022-08-26T14:04:27.523Z,18.54
2022-08-26T14:06:55.122Z,18.81
2022-08-26T14:09:22.652Z,18.99
2022-08-26T14:11:54.058Z,19.15
2022-08-26T14:14:23.177Z,19.07
2022-08-26T14:16:58.947Z,19.20
2022-08-26T14:19:30.080Z,19.28
2022-08-26T14:22:00.789Z,19.42
2022-08-26T14:24:29.314Z,19.77
2022-08-26T14:26:56.793Z,20.13
2022-08-26T14:29:24.476Z,20.72
2022-08-26T14:31:52.175Z,20.34
2022-08-26T14:34:19.837Z,20.70
2022-08-26T14:36:47.317Z,20.19
2022-08-26T14:39:14.906Z,20.57
2022-08-26T14:41:53.987Z,20.92
2022-08-26T14:44:26.343Z,20.87
2022-08-26T14:46:54.800Z,20.64
2022-08-26T14:49:24.042Z,20.56
2022-08-26T14:51:51.613Z,20.60
2022-08-26T14:54:20.735Z,20.60
2022-08-26T14:56:50.249Z,21.06
2022-08-26T14:59:24.637Z,21.45
2022-08-26T15:01:52.937Z,21.41
2022-08-26T15:04:20.926Z,21.66
2022-08-26T15:06:48.777Z,21.50
2022-08-26T15:09:16.545Z,21.51
2022-08-26T15:11:44.065Z,21.66
2022-08-26T15:14:19.171Z,21.46
2022-08-26T15:16:50.377Z,21.85
2022-08-26T15:19:18.911Z,21.75
2022-08-26T15:21:47.543Z,21.73
2022-08-26T15:24:21.320Z,22.01
2022-08-26T15:26:49.683Z,21.58
2022-08-26T15:29:26.659Z,21.70
2022-08-26T15:31:55.270Z,22.10
2022-08-26T15:34:30.373Z,22.33
2022-08-26T15:36:58.105Z,22.66
2022-08-26T15:39:25.610Z,22.39
2022-08-26T15:41:53.231Z,22.49
2022-08-26T15:44:20.818Z,22.94
2022-08-26T15:46:49.893Z,23.18
2022-08-26T15:49:18.845Z,22.93
2022-08-26T15:51:48.151Z,22.99
2022-08-26T15:54:17.535Z,23.31
2022-08-26T15:56:45.773Z,23.65
2022-08-26T15:59:15.844Z,23.63
2022-08-26T16:01:44.172Z,23.53
2022-08-26T16:04:12.555Z,23.41
2022-08-26T16:06:41.254Z,23.22
2022-08-26T16:09:11.450Z,23.76
2022-08-26T16:11:39.237Z,23.74
2022-08-26T16:14:07.264Z,23.49
2022-08-26T16:16:39.453Z,23.69
2022-08-26T16:19:08.245Z,23.71
2022-08-26T16:21:36.250Z,24.16
2022-08-26T16:24:04.591Z,24.17
2022-08-26T16:26:34.527Z,24.42
2022-08-26T16:29:05.305Z,24.64
2022-08-26T16:31:33.101Z,24.79
2022-08-26T16:34:00.947Z,24.69
2022-08-26T16:36:28.465Z,24.69
2022-08-26T16:38:56.878Z,25.16
2022-08-26T16:41:27.033Z,24.98
2022-08-26T16:43:58.105Z,25.08
2022-08-26T16:46:26.629Z,25.21
2022-08-26T16:48:56.071Z,25.61
2022-08-26T16:51:27.209Z,25.74
2022-08-26T16:53:56.955Z,25.39
2022-08-26T16:56:33.423Z,26.01
2022-08-26T16:59:04.347Z,25.63
2022-08-26T17:01:32.375Z,26.08
2022-08-26T17:04:00.071Z,26.14
2022-08-26T17:06:27.688Z,26.30
2022-08-26T17:08:55.249Z,26.33
2022-08-26T17:11:22.838Z,26.43
2022-08-26T17:13:50.406Z,26.65
2022-08-26T17:16:18.042Z,26.97
2022-08-26T17:18:45.733Z,26.81
2022-08-26T17:21:14.354Z,27.10
2022-08-26T17:23:43.358Z,27.23
2022-08-26T17:26:12.454Z,27.27
2022-08-26T17:28:42.925Z,27.64
2022-08-26T17:31:12.507Z,28.03
2022-08-26T17:33:40.534Z,28.10
2022-08-26T17:36:10.081Z,27.92
2022-08-26T17:38:38.272Z,27.98
2022-08-26T17:41:10.858Z,28.62
2022-08-26T17:43:39.278Z,28.69
2022-08-26T17:46:08.593Z,29.00
2022-08-26T17:48:38.177Z,28.73
2022-08-26T17:51:27.197Z,28.69
2022-08-26T17:53:55.154Z,28.93
2022-08-26T17:56:27.179Z,28.74
2022-08-26T17:58:58.037Z,28.79
2022-08-26T18:01:32.329Z,28.96
2022-08-26T18:04:01.019Z,28.79
2022-08-26T18:06:30.483Z,29.25
2022-08-26T18:08:59.543Z,29.71
2022-08-26T18:11:28.093Z,29.82
2022-08-26T18:13:55.704Z,30.22
2022-08-26T18:16:27.534Z,30.40
2022-08-26T18:18:55.686Z,30.06
2022-08-26T18:21:25.730Z,30.94
2022-08-26T18:23:56.586Z,30.65
2022-08-26T18:26:31.206Z,30.63
2022-08-26T18:28:59.567Z,31.50
2022-08-26T18:31:27.599Z,31.48
2022-08-26T18:33:55.382Z,31.78
2022-08-26T18:36:28.945Z,31.83
2022-08-26T18:38:57.574Z,32.23
2022-08-26T18:41:28.813Z,32.30
2022-08-26T18:43:57.030Z,32.64
2022-08-26T18:46:28.985Z,32.64
2022-08-26T18:48:57.748Z,32.57
2022-08-26T18:51:31.635Z,32.87
2022-08-26T18:54:00.965Z,32.78
2022-08-26T18:56:29.176Z,32.86
2022-08-26T18:58:56.767Z,33.16
2022-08-26T19:01:27.382Z,33.51
2022-08-26T19:03:57.498Z,33.64
2022-08-26T19:06:26.847Z,33.86
2022-08-26T19:08:55.727Z,33.42
2022-08-26T19:11:32.295Z,33.87
2022-08-26T19:14:13.724Z,34.23
2022-08-26T19:16:47.543Z,34.32
2022-08-26T19:19:16.492Z,34.16
2022-08-26T19:21:44.250Z,34.46
2022-08-26T19:24:15.586Z,34.87
2022-08-26T19:26:48.241Z,34.66
2022-08-26T19:31:47.914Z,35.04
2022-08-26T19:34:20.749Z,35.28
2022-08-26T19:36:49.807Z,35.33
2022-08-26T19:39:17.379Z,35.56
2022-08-26T19:41:45.110Z,35.62
2022-08-26T19:44:37.248Z,35.11
2022-08-26T19:47:06.699Z,35.41
2022-08-26T19:49:35.054Z,35.42
2022-08-26T19:52:03.215Z,35.43
2022-08-26T19:54:30.982Z,35.72
2022-08-26T19:56:58.539Z,35.23
2022-08-26T19:59:26.120Z,35.49
2022-08-26T20:02:01.476Z,35.23
2022-08-26T20:04:32.990Z,36.16
2022-08-26T20:07:02.223Z,35.89
2022-08-26T20:09:30.658Z,36.11
2022-08-26T20:11:58.531Z,36.40
2022-08-26T20:14:27.978Z,36.24
2022-08-26T20:16:56.038Z,36.11
2022-08-26T20:19:44.819Z,36.65
2022-08-26T20:22:12.997Z,36.64
2022-08-26T20:24:41.079Z,36.84
2022-08-26T20:27:09.732Z,36.92
2022-08-26T20:29:40.534Z,37.37
2022-08-26T20:32:08.269Z,37.36
2022-08-26T20:34:36.705Z,37.20
2022-08-26T20:37:05.139Z,37.41
2022-08-26T20:39:32.884Z,37.46
2022-08-26T20:42:04.412Z,37.83
2022-08-26T20:44:34.228Z,37.54
2022-08-26T20:47:01.968Z,37.88
2022-08-26T20:49:32.730Z,38.23
2022-08-26T20:52:07.908Z,38.45
2022-08-26T20:54:35.361Z,38.35
2022-08-26T20:57:03.460Z,38.40
2022-08-26T20:59:36.550Z,38.75
2022-08-26T21:02:04.243Z,38.50
2022-08-26T21:04:31.936Z,38.69
2022-08-26T21:06:59.510Z,38.93
2022-08-26T21:09:28.107Z,39.26
2022-08-26T21:11:57.400Z,39.23
2022-08-26T21:14:27.432Z,39.35
2022-08-26T21:17:01.103Z,39.90
2022-08-26T21:19:28.872Z,39.57
2022-08-26T21:21:56.329Z,39.68
2022-08-26T21:24:23.813Z,39.68
2022-08-26T21:26:51.420Z,40.05
2022-08-26T21:29:19.108Z,40.22
2022-08-26T21:31:47.049Z,40.19
2022-08-26T21:34:17.978Z,40.55
2022-08-26T21:36:49.043Z,40.94
2022-08-26T21:39:17.204Z,40.47
2022-08-26T21:41:45.934Z,40.65
2022-08-26T21:44:15.690Z,39.81
2022-08-26T21:46:44.728Z,39.70
2022-08-26T21:49:15.997Z,40.10
2022-08-26T21:51:48.321Z,40.52
2022-08-26T21:54:16.537Z,40.20
2022-08-26T21:56:47.109Z,40.11
2022-08-26T21:59:17.281Z,40.41
2022-08-26T22:01:45.287Z,40.25
2022-08-26T22:04:16.241Z,40.73
2022-08-26T22:07:10.394Z,40.94
2022-08-26T22:09:37.955Z,40.78
2022-08-26T22:12:18.426Z,41.13
2022-08-26T22:14:49.368Z,40.86
2022-08-26T22:17:17.118Z,40.54
2022-08-26T22:19:46.223Z,40.38
2022-08-26T22:22:14.665Z,40.57
2022-08-26T22:24:43.385Z,40.24
2022-08-26T22:27:12.080Z,40.26
2022-08-26T22:29:39.857Z,40.20
2022-08-26T22:32:07.442Z,40.39
2022-08-26T22:34:37.582Z,40.50
2022-08-26T22:37:05.885Z,40.70
2022-08-26T22:39:34.286Z,40.87
2022-08-26T22:42:03.748Z,40.99
2022-08-26T22:44:32.276Z,40.94
2022-08-26T22:47:02.798Z,41.10
2022-08-26T22:49:30.333Z,40.93
2022-08-26T22:52:00.594Z,40.88
2022-08-26T22:54:28.254Z,41.10
2022-08-26T22:56:56.018Z,40.90
2022-08-26T22:59:23.587Z,40.27
2022-08-26T23:01:51.699Z,40.63
2022-08-26T23:04:19.455Z,40.50
2022-08-26T23:06:47.578Z,40.50
2022-08-26T23:09:18.229Z,40.58
2022-08-26T23:11:47.903Z,40.82
2022-08-26T23:14:17.091Z,40.81
2022-08-26T23:16:45.125Z,40.98
2022-08-26T23:19:14.498Z,41.14
2022-08-26T23:21:42.106Z,41.11
2022-08-26T23:24:10.688Z,41.40
2022-08-26T23:26:40.577Z,41.59
2022-08-26T23:29:10.931Z,41.52
2022-08-26T23:31:40.572Z,41.43
2022-08-26T23:34:26.648Z,41.29
2022-08-26T23:37:00.252Z,41.87
2022-08-26T23:39:33.529Z,41.69
2022-08-26T23:42:01.852Z,41.95
2022-08-26T23:44:30.965Z,41.77
2022-08-26T23:46:59.473Z,42.21
2022-08-26T23:49:28.112Z,42.22
2022-08-26T23:52:14.339Z,42.47
2022-08-26T23:54:42.325Z,42.54
2022-08-26T23:57:10.063Z,42.51
2022-08-26T23:59:40.249Z,43.00
